createdAt,value
2023-01-09T00:01:51.419Z,19.02
2023-01-09T00:06:56.274Z,19.23
2023-01-09T00:11:57.977Z,18.98
2023-01-09T00:16:59.740Z,19.77
2023-01-09T00:22:01.959Z,18.80
2023-01-09T00:27:04.159Z,18.38
2023-01-09T00:32:10.062Z,18.73
2023-01-09T00:37:12.624Z,19.63
2023-01-09T00:42:23.550Z,18.42
2023-01-09T00:47:31.215Z,18.65
2023-01-09T00:52:35.921Z,19.00
2023-01-09T00:57:37.760Z,20.08
2023-01-09T01:02:39.736Z,18.50
2023-01-09T01:07:43.120Z,18.92
2023-01-09T01:12:44.881Z,19.92
2023-01-09T01:17:46.645Z,18.85
2023-01-09T01:22:48.337Z,19.13
2023-01-09T01:27:50.219Z,19.25
2023-01-09T01:32:51.852Z,19.23
2023-01-09T01:37:53.542Z,19.92
2023-01-09T01:42:55.494Z,19.83
2023-01-09T01:48:00.250Z,20.13
2023-01-09T01:53:21.909Z,20.83
2023-01-09T01:58:23.615Z,20.38
2023-01-09T02:03:28.512Z,20.00
2023-01-09T02:08:30.613Z,18.45
2023-01-09T02:13:35.178Z,18.02
2023-01-09T02:18:52.088Z,18.52
2023-01-09T02:24:18.144Z,17.88
2023-01-09T02:29:41.320Z,17.45
2023-01-09T02:35:06.030Z,18.58
2023-01-09T02:40:25.322Z,17.35
2023-01-09T02:45:27.477Z,18.13
2023-01-09T02:50:44.349Z,17.23
2023-01-09T02:56:04.505Z,17.63
2023-01-09T03:01:35.919Z,19.67
2023-01-09T03:07:02.567Z,19.65
2023-01-09T03:12:11.936Z,19.52
2023-01-09T03:17:19.231Z,20.38
2023-01-09T03:22:21.045Z,20.50
2023-01-09T03:27:22.739Z,21.95
2023-01-09T03:32:24.505Z,21.45
2023-01-09T03:37:26.124Z,22.05
2023-01-09T03:42:27.834Z,24.17
2023-01-09T03:47:29.488Z,24.98
2023-01-09T03:52:31.190Z,22.92
2023-01-09T03:57:32.919Z,22.45
2023-01-09T04:02:34.638Z,22.23
2023-01-09T04:07:36.514Z,22.05
2023-01-09T04:12:38.311Z,23.45
2023-01-09T04:17:39.950Z,24.25
2023-01-09T04:22:41.751Z,23.73
2023-01-09T04:27:43.430Z,24.25
2023-01-09T04:32:45.170Z,23.60
2023-01-09T04:37:47.239Z,21.95
2023-01-09T04:42:48.894Z,22.50
2023-01-09T04:47:50.660Z,21.17
2023-01-09T04:52:52.313Z,21.75
2023-01-09T04:57:53.913Z,21.90
2023-01-09T05:02:56.924Z,21.55
2023-01-09T05:07:58.627Z,21.25
2023-01-09T05:13:00.334Z,21.83
2023-01-09T05:18:01.964Z,22.40
2023-01-09T05:23:03.707Z,21.77
2023-01-09T05:28:05.351Z,21.23
2023-01-09T05:33:07.042Z,20.48
2023-01-09T05:38:08.736Z,19.42
2023-01-09T05:43:10.555Z,19.55
2023-01-09T05:48:12.304Z,19.48
2023-01-09T05:53:14.048Z,19.90
2023-01-09T05:58:15.803Z,18.70
2023-01-09T06:03:17.504Z,19.42
2023-01-09T06:08:19.426Z,18.83
2023-01-09T06:13:21.230Z,19.77
2023-01-09T06:18:23.015Z,18.73
2023-01-09T06:23:24.703Z,18.92
2023-01-09T06:28:26.365Z,19.05
2023-01-09T06:33:28.069Z,17.58
2023-01-09T06:38:29.800Z,18.45
2023-01-09T06:43:31.528Z,18.20
2023-01-09T06:48:33.990Z,18.38
2023-01-09T06:53:35.786Z,17.27
2023-01-09T06:58:37.462Z,17.85
2023-01-09T07:03:39.116Z,16.27
2023-01-09T07:08:40.810Z,16.27
2023-01-09T07:13:42.653Z,15.45
2023-01-09T07:18:44.380Z,14.05
2023-01-09T07:23:46.941Z,13.63
2023-01-09T07:28:48.793Z,13.68
2023-01-09T07:33:50.460Z,14.73
2023-01-09T07:38:55.054Z,15.18
2023-01-09T07:43:57.527Z,15.10
2023-01-09T07:48:59.151Z,13.65
2023-01-09T07:54:01.018Z,15.25
2023-01-09T07:59:02.741Z,16.23
2023-01-09T08:04:04.525Z,15.88
2023-01-09T08:09:06.220Z,15.57
2023-01-09T08:14:08.178Z,15.60
2023-01-09T08:19:12.227Z,15.82
2023-01-09T08:24:13.948Z,17.42
2023-01-09T08:29:15.608Z,15.50
2023-01-09T08:34:17.219Z,17.13
2023-01-09T08:39:19.040Z,17.73
2023-01-09T08:44:39.153Z,17.02
2023-01-09T08:49:40.933Z,4.65
2023-01-09T08:54:42.588Z,1.83
2023-01-09T08:59:44.257Z,1.75
2023-01-09T09:04:47.381Z,1.92
2023-01-09T09:09:49.144Z,1.48
2023-01-09T09:15:09.340Z,1.20
2023-01-09T09:20:11.959Z,1.50
2023-01-09T09:25:15.112Z,1.48
2023-01-09T09:30:18.975Z,1.20
2023-01-09T09:35:23.589Z,1.10
2023-01-09T09:40:33.366Z,1.30
2023-01-09T09:45:56.598Z,1.52
2023-01-09T09:51:22.949Z,1.30
2023-01-09T09:56:24.822Z,1.65
2023-01-09T10:01:39.832Z,1.65
2023-01-09T10:06:45.089Z,1.50
2023-01-09T10:11:59.952Z,1.45
2023-01-09T10:17:45.409Z,1.55
2023-01-09T10:23:22.827Z,1.10
2023-01-09T10:28:33.919Z,1.30
2023-01-09T10:33:41.716Z,1.50
2023-01-09T10:38:47.733Z,1.50
2023-01-09T10:43:53.132Z,1.05
2023-01-09T10:48:59.560Z,0.80
2023-01-09T10:54:01.651Z,0.82
2023-01-09T10:59:03.463Z,0.88
2023-01-09T11:04:16.347Z,0.80
2023-01-09T11:09:19.065Z,0.47
2023-01-09T11:14:27.860Z,0.75
2023-01-09T11:19:31.286Z,0.90
2023-01-09T11:24:33.073Z,0.52
2023-01-09T11:29:34.732Z,0.50
2023-01-09T11:34:37.221Z,0.50
2023-01-09T11:39:45.440Z,0.40
2023-01-09T11:44:47.136Z,0.50
2023-01-09T11:49:51.433Z,0.52
2023-01-09T11:55:00.973Z,0.65
2023-01-09T12:00:33.635Z,0.30
2023-01-09T12:05:51.833Z,0.20
2023-01-09T12:11:21.595Z,0.40
2023-01-09T12:16:37.053Z,0.50
2023-01-09T12:22:16.311Z,0.40
2023-01-09T12:27:42.450Z,0.60
2023-01-09T12:33:09.301Z,0.40
2023-01-09T12:43:30.655Z,0.40
2023-01-09T12:48:57.324Z,0.50
2023-01-09T12:54:22.172Z,0.65
2023-01-09T12:59:40.160Z,0.30
2023-01-09T13:04:50.975Z,0.40
2023-01-09T13:10:04.857Z,0.40
2023-01-09T13:15:24.551Z,0.35
2023-01-09T13:20:36.535Z,0.50
2023-01-09T13:25:41.162Z,0.50
2023-01-09T13:31:19.502Z,0.45
2023-01-09T13:36:28.134Z,0.30
2023-01-09T13:41:50.051Z,0.40
2023-01-09T13:46:56.227Z,0.40
2023-01-09T13:51:59.406Z,0.53
2023-01-09T13:57:32.634Z,0.40
2023-01-09T14:02:34.357Z,0.43
2023-01-09T14:07:38.872Z,0.45
2023-01-09T14:12:43.236Z,0.45
2023-01-09T14:17:44.983Z,0.60
2023-01-09T14:22:56.199Z,0.50
2023-01-09T14:28:18.922Z,0.57
2023-01-09T14:33:21.437Z,0.55
2023-01-09T14:38:34.407Z,0.55
2023-01-09T14:43:58.459Z,0.55
2023-01-09T14:49:04.261Z,0.45
2023-01-09T14:54:34.715Z,0.47
2023-01-09T14:59:36.448Z,0.60
2023-01-09T15:04:40.975Z,0.70
2023-01-09T15:09:48.073Z,0.50
2023-01-09T15:19:58.202Z,0.60
2023-01-09T15:25:38.516Z,0.45
2023-01-09T15:30:42.032Z,0.57
2023-01-09T15:35:46.590Z,0.60
2023-01-09T15:41:50.978Z,0.63
2023-01-09T15:46:58.512Z,0.70
2023-01-09T15:52:02.361Z,1.25
2023-01-09T15:57:26.107Z,0.60
2023-01-09T16:02:47.725Z,0.70
2023-01-09T16:07:51.275Z,0.70
2023-01-09T16:12:54.748Z,0.65
2023-01-09T16:18:39.099Z,0.57
2023-01-09T16:23:51.506Z,0.70
2023-01-09T16:28:53.344Z,7.35
2023-01-09T16:33:59.257Z,1.30
2023-01-09T16:39:02.995Z,1.23
2023-01-09T16:44:09.452Z,3.65
2023-01-09T16:49:29.157Z,2.17
2023-01-09T16:54:30.921Z,2.50
2023-01-09T16:59:32.554Z,2.17
2023-01-09T17:04:34.273Z,2.03
2023-01-09T17:09:37.565Z,1.48
2023-01-09T17:14:39.558Z,1.70
2023-01-09T17:19:42.250Z,1.38
2023-01-09T17:25:02.253Z,5.53
2023-01-09T17:30:17.819Z,2.90
2023-01-09T17:35:20.384Z,2.40
2023-01-09T17:40:23.534Z,1.88
2023-01-09T17:45:25.684Z,1.63
2023-01-09T17:50:33.712Z,1.30
2023-01-09T17:55:36.249Z,1.15
2023-01-09T18:00:37.967Z,2.03
2023-01-09T18:05:39.903Z,1.92
2023-01-09T18:10:43.076Z,2.03
2023-01-09T18:15:46.283Z,2.40
2023-01-09T18:20:48.442Z,2.78
2023-01-09T18:25:50.284Z,1.83
2023-01-09T18:30:52.293Z,2.38
2023-01-09T18:35:54.098Z,2.03
2023-01-09T18:41:03.293Z,2.28
2023-01-09T18:46:07.360Z,1.50
2023-01-09T18:51:09.431Z,1.58
2023-01-09T18:56:14.802Z,1.30
2023-01-09T19:01:17.023Z,0.80
2023-01-09T19:06:18.902Z,0.90
2023-01-09T19:11:21.112Z,1.00
2023-01-09T19:16:22.916Z,0.90
2023-01-09T19:21:26.798Z,1.02
2023-01-09T19:26:28.576Z,0.73
2023-01-09T19:31:30.499Z,0.73
2023-01-09T19:36:32.175Z,0.80
2023-01-09T19:41:33.853Z,0.63
2023-01-09T19:46:36.217Z,0.90
2023-01-09T19:51:37.930Z,0.85
2023-01-09T19:56:40.861Z,0.90
2023-01-09T20:01:42.692Z,0.90
2023-01-09T20:06:49.644Z,0.80
2023-01-09T20:11:51.440Z,0.70
2023-01-09T20:16:55.304Z,1.00
2023-01-09T20:21:57.033Z,0.60
2023-01-09T20:26:58.773Z,0.80
2023-01-09T20:32:01.393Z,0.70
2023-01-09T20:37:03.054Z,0.80
2023-01-09T20:42:04.991Z,0.93
2023-01-09T20:47:06.743Z,0.70
2023-01-09T20:52:08.591Z,0.60
2023-01-09T20:57:10.276Z,0.65
2023-01-09T21:02:15.000Z,0.57
2023-01-09T21:07:17.347Z,0.73
2023-01-09T21:12:28.605Z,1.25
2023-01-09T21:17:34.805Z,0.70
2023-01-09T21:22:37.367Z,0.60
2023-01-09T21:27:42.978Z,0.60
2023-01-09T21:32:44.717Z,0.85
2023-01-09T21:37:46.394Z,0.60
2023-01-09T21:43:07.166Z,0.80
2023-01-09T21:48:08.922Z,0.60
2023-01-09T21:53:10.786Z,0.60
2023-01-09T21:58:12.510Z,0.50
2023-01-09T22:03:16.979Z,0.80
2023-01-09T22:08:18.675Z,0.55
2023-01-09T22:13:20.516Z,0.60
2023-01-09T22:18:22.559Z,0.60
2023-01-09T22:23:24.311Z,0.60
2023-01-09T22:28:26.355Z,0.57
2023-01-09T22:33:28.026Z,0.70
2023-01-09T22:38:29.652Z,0.73
2023-01-09T22:43:31.913Z,0.70
2023-01-09T22:48:34.651Z,0.75
2023-01-09T22:53:36.362Z,0.60
2023-01-09T22:58:38.655Z,0.85
2023-01-09T23:03:40.430Z,0.73
2023-01-09T23:08:42.893Z,0.90
2023-01-09T23:13:44.533Z,0.90
2023-01-09T23:18:46.208Z,0.95
2023-01-09T23:23:47.877Z,1.00
2023-01-09T23:28:49.558Z,1.00
2023-01-09T23:33:51.440Z,1.20
2023-01-09T23:38:53.350Z,1.08
2023-01-09T23:43:55.189Z,1.58
2023-01-09T23:48:56.849Z,1.17
2023-01-09T23:53:59.103Z,1.10
2023-01-09T23:59:01.740Z,0.88
